Tagish, Canada
Current Conditions -  °F | °C
As of 9:00 AM on Thursday 30 Oct 2014 (Local Time) from CYXY Reporting Station
Broken Clouds Broken Clouds  
Wind Chill: 19°   Ceiling: 17000
Heat Index: 28°   Visibility: 30mi
Dew Point: 25°   Wind: 10mph
Humidity: 86%   Direction: 190°S
Pressure: 29.51"   Gusts: NA
Location:  60.3°N, 134.27°W
Report Text: CYXY 301600Z 19009KT 30SM FEW035 BKN170 M02/M04 A2951 RMK SC2AC5 SLP031
Loading
Personal Weather Stations






























Interactive Weather Map
Tropical Storm Tracking
New forecast layout! Learn more

10-Day Weather Forecast

Advertisements
Track Severe Weather on mobile